RKPC/CJU METAR and TAF weather

Enter ICAO airport designator
Station Type Date Time Source
RKPC METAR 2019/04/19 08:00 UTC NOAA

RKPC 190800Z 06013KT 9999 FEW035 19/15 Q1014 NOSIG


Station Type Date Time Source
RKPC Decoded METAR 2019/04/19 08:00 UTC NOAA

Cheju International Airport, Korea, South (RKPC) 33-30N 126-30E 28M
Apr 19, 2019 - 04:00 AM EDT / 2019.04.19 0800 UTC
Wind: from the ENE (060 degrees) at 15 MPH (13 KT):0
Visibility: greater than 7 mile(s):0
Sky conditions: mostly clear
Temperature: 66 F (19 C)
Dew Point: 59 F (15 C)
Relative Humidity: 77%
Pressure (altimeter): 29.94 in. Hg (1014 hPa)
ob: RKPC 190800Z 06013KT 9999 FEW035 19/15 Q1014 NOSIG
cycle: 8

Station Type Date Time Source
RKPC TAF 2019/04/19 06:09 UTC NOAA

TAF TAF RKPC 190500Z 1906/2012 06011KT 6000 SCT030 TN12/1920Z TX20/2005Z
BECMG 1911/1912 12007KT
BECMG 2002/2003 06010KT CAVOK
BECMG 2010/2011 17006KT

Example: see airport list